sensor_id;sensor_type;location;lat;lon;timestamp;temperature;humidity
23744;DHT22;12052;53.478;10.182;2023-06-10T00:01:24;14.70;99.90
23744;DHT22;12052;53.478;10.182;2023-06-10T00:03:50;14.60;99.90
23744;DHT22;12052;53.478;10.182;2023-06-10T00:06:17;14.60;99.90
23744;DHT22;12052;53.478;10.182;2023-06-10T00:08:42;14.50;99.90
23744;DHT22;12052;53.478;10.182;2023-06-10T00:11:08;14.50;99.90
23744;DHT22;12052;53.478;10.182;2023-06-10T00:13:34;14.40;99.90
23744;DHT22;12052;53.478;10.182;2023-06-10T00:15:59;14.40;99.90
23744;DHT22;12052;53.478;10.182;2023-06-10T00:18:25;14.30;99.90
23744;DHT22;12052;53.478;10.182;2023-06-10T00:20:52;14.30;99.90
23744;DHT22;12052;53.478;10.182;2023-06-10T00:23:21;14.30;99.90
23744;DHT22;12052;53.478;10.182;2023-06-10T00:25:46;14.20;99.90
23744;DHT22;12052;53.478;10.182;2023-06-10T00:28:12;14.20;99.90
23744;DHT22;12052;53.478;10.182;2023-06-10T00:30:38;14.20;99.90
23744;DHT22;12052;53.478;10.182;2023-06-10T00:33:04;14.20;99.90
23744;DHT22;12052;53.478;10.182;2023-06-10T00:35:30;14.10;99.90
23744;DHT22;12052;53.478;10.182;2023-06-10T00:37:55;14.00;99.90
23744;DHT22;12052;53.478;10.182;2023-06-10T00:40:21;14.00;99.90
23744;DHT22;12052;53.478;10.182;2023-06-10T00:42:46;14.00;99.90
23744;DHT22;12052;53.478;10.182;2023-06-10T00:45:12;14.00;99.90
23744;DHT22;12052;53.478;10.182;2023-06-10T00:47:38;13.90;99.90
23744;DHT22;12052;53.478;10.182;2023-06-10T00:50:05;13.90;99.90
23744;DHT22;12052;53.478;10.182;2023-06-10T00:52:30;13.80;99.90
23744;DHT22;12052;53.478;10.182;2023-06-10T00:54:56;13.80;99.90
23744;DHT22;12052;53.478;10.182;2023-06-10T00:57:22;13.70;99.90
23744;DHT22;12052;53.478;10.182;2023-06-10T00:59:48;13.60;99.90
23744;DHT22;12052;53.478;10.182;2023-06-10T01:02:15;13.60;99.90
23744;DHT22;12052;53.478;10.182;2023-06-10T01:04:40;13.50;99.90
23744;DHT22;12052;53.478;10.182;2023-06-10T01:07:24;13.60;99.90
23744;DHT22;12052;53.478;10.182;2023-06-10T01:10:19;13.50;99.90
23744;DHT22;12052;53.478;10.182;2023-06-10T01:12:59;13.50;99.90
23744;DHT22;12052;53.478;10.182;2023-06-10T01:15:31;13.50;99.90
23744;DHT22;12052;53.478;10.182;2023-06-10T01:18:04;13.50;99.90
23744;DHT22;12052;53.478;10.182;2023-06-10T01:20:34;13.50;99.90
23744;DHT22;12052;53.478;10.182;2023-06-10T01:23:02;13.40;99.90
23744;DHT22;12052;53.478;10.182;2023-06-10T01:25:29;13.40;99.90
23744;DHT22;12052;53.478;10.182;2023-06-10T01:30:36;13.30;99.90
23744;DHT22;12052;53.478;10.182;2023-06-10T01:33:05;13.30;99.90
23744;DHT22;12052;53.478;10.182;2023-06-10T01:35:33;13.30;99.90
23744;DHT22;12052;53.478;10.182;2023-06-10T01:38:00;13.30;99.90
23744;DHT22;12052;53.478;10.182;2023-06-10T01:40:26;13.20;99.90
23744;DHT22;12052;53.478;10.182;2023-06-10T01:42:53;13.10;99.90
23744;DHT22;12052;53.478;10.182;2023-06-10T01:45:19;13.20;99.90
23744;DHT22;12052;53.478;10.182;2023-06-10T01:47:45;13.10;99.90
23744;DHT22;12052;53.478;10.182;2023-06-10T01:50:10;13.10;99.90
23744;DHT22;12052;53.478;10.182;2023-06-10T01:52:36;13.00;99.90
23744;DHT22;12052;53.478;10.182;2023-06-10T01:55:02;13.00;99.90
23744;DHT22;12052;53.478;10.182;2023-06-10T01:57:28;13.00;99.90
23744;DHT22;12052;53.478;10.182;2023-06-10T01:59:54;13.00;99.90
23744;DHT22;12052;53.478;10.182;2023-06-10T02:02:19;13.00;99.90
23744;DHT22;12052;53.478;10.182;2023-06-10T02:04:47;13.00;99.90
23744;DHT22;12052;53.478;10.182;2023-06-10T02:07:13;13.00;99.90
23744;DHT22;12052;53.478;10.182;2023-06-10T02:09:38;12.90;99.90
23744;DHT22;12052;53.478;10.182;2023-06-10T02:12:04;12.90;99.90
23744;DHT22;12052;53.478;10.182;2023-06-10T02:14:32;12.90;99.90
23744;DHT22;12052;53.478;10.182;2023-06-10T02:16:58;12.90;99.90
23744;DHT22;12052;53.478;10.182;2023-06-10T02:19:23;12.80;99.90
23744;DHT22;12052;53.478;10.182;2023-06-10T02:21:52;12.80;99.90
23744;DHT22;12052;53.478;10.182;2023-06-10T02:24:18;12.80;99.90
23744;DHT22;12052;53.478;10.182;2023-06-10T02:26:44;12.80;99.90
23744;DHT22;12052;53.478;10.182;2023-06-10T02:29:10;12.70;99.90
23744;DHT22;12052;53.478;10.182;2023-06-10T02:31:36;12.70;99.90
23744;DHT22;12052;53.478;10.182;2023-06-10T02:34:03;12.80;99.90
23744;DHT22;12052;53.478;10.182;2023-06-10T02:36:29;12.70;99.90
23744;DHT22;12052;53.478;10.182;2023-06-10T02:38:54;12.70;99.90
23744;DHT22;12052;53.478;10.182;2023-06-10T02:41:21;12.70;99.90
23744;DHT22;12052;53.478;10.182;2023-06-10T02:43:47;12.60;99.90
23744;DHT22;12052;53.478;10.182;2023-06-10T02:46:13;12.60;99.90
23744;DHT22;12052;53.478;10.182;2023-06-10T02:48:45;12.60;99.90
23744;DHT22;12052;53.478;10.182;2023-06-10T02:51:11;12.60;99.90
23744;DHT22;12052;53.478;10.182;2023-06-10T02:53:37;12.50;99.90
23744;DHT22;12052;53.478;10.182;2023-06-10T02:56:02;12.50;99.90
23744;DHT22;12052;53.478;10.182;2023-06-10T02:58:28;12.50;99.90
23744;DHT22;12052;53.478;10.182;2023-06-10T03:00:54;12.50;99.90
23744;DHT22;12052;53.478;10.182;2023-06-10T03:03:20;12.50;99.90
23744;DHT22;12052;53.478;10.182;2023-06-10T03:05:47;12.50;99.90
23744;DHT22;12052;53.478;10.182;2023-06-10T03:08:13;12.50;99.90
23744;DHT22;12052;53.478;10.182;2023-06-10T03:10:39;12.40;99.90
23744;DHT22;12052;53.478;10.182;2023-06-10T03:13:04;12.40;99.90
23744;DHT22;12052;53.478;10.182;2023-06-10T03:15:30;12.40;99.90
23744;DHT22;12052;53.478;10.182;2023-06-10T03:18:00;12.40;99.90
23744;DHT22;12052;53.478;10.182;2023-06-10T03:20:26;12.40;99.90
23744;DHT22;12052;53.478;10.182;2023-06-10T03:22:53;12.40;99.90
23744;DHT22;12052;53.478;10.182;2023-06-10T03:25:18;12.40;99.90
23744;DHT22;12052;53.478;10.182;2023-06-10T03:27:46;12.40;99.90
23744;DHT22;12052;53.478;10.182;2023-06-10T03:30:13;12.40;99.90
23744;DHT22;12052;53.478;10.182;2023-06-10T03:32:39;12.40;99.90
23744;DHT22;12052;53.478;10.182;2023-06-10T03:35:06;12.40;99.90
23744;DHT22;12052;53.478;10.182;2023-06-10T03:37:32;12.40;99.90
23744;DHT22;12052;53.478;10.182;2023-06-10T03:39:58;12.50;99.90
23744;DHT22;12052;53.478;10.182;2023-06-10T03:42:23;12.40;99.90
23744;DHT22;12052;53.478;10.182;2023-06-10T03:44:49;12.50;99.90
23744;DHT22;12052;53.478;10.182;2023-06-10T03:47:14;12.50;99.90
23744;DHT22;12052;53.478;10.182;2023-06-10T03:49:40;12.50;99.90
23744;DHT22;12052;53.478;10.182;2023-06-10T03:52:06;12.60;99.90
23744;DHT22;12052;53.478;10.182;2023-06-10T03:54:32;12.60;99.90
23744;DHT22;12052;53.478;10.182;2023-06-10T03:57:00;12.60;99.90
23744;DHT22;12052;53.478;10.182;2023-06-10T03:59:26;12.60;99.90
23744;DHT22;12052;53.478;10.182;2023-06-10T04:01:52;12.60;99.90
23744;DHT22;12052;53.478;10.182;2023-06-10T04:04:17;12.60;99.90
23744;DHT22;12052;53.478;10.182;2023-06-10T04:06:43;12.60;99.90
23744;DHT22;12052;53.478;10.182;2023-06-10T04:09:12;12.70;99.90
23744;DHT22;12052;53.478;10.182;2023-06-10T04:11:38;12.60;99.90
23744;DHT22;12052;53.478;10.182;2023-06-10T04:14:03;12.70;99.90
23744;DHT22;12052;53.478;10.182;2023-06-10T04:16:29;12.80;99.90
23744;DHT22;12052;53.478;10.182;2023-06-10T04:18:55;12.70;99.90
23744;DHT22;12052;53.478;10.182;2023-06-10T04:21:20;12.80;99.90
23744;DHT22;12052;53.478;10.182;2023-06-10T04:23:47;12.90;99.90
23744;DHT22;12052;53.478;10.182;2023-06-10T04:26:12;12.90;99.90
23744;DHT22;12052;53.478;10.182;2023-06-10T04:28:38;13.00;99.90
23744;DHT22;12052;53.478;10.182;2023-06-10T04:31:04;13.00;99.90
23744;DHT22;12052;53.478;10.182;2023-06-10T04:33:30;13.00;99.90
23744;DHT22;12052;53.478;10.182;2023-06-10T04:35:56;13.10;99.90
23744;DHT22;12052;53.478;10.182;2023-06-10T04:38:21;13.10;99.90
23744;DHT22;12052;53.478;10.182;2023-06-10T04:40:47;13.20;99.90
23744;DHT22;12052;53.478;10.182;2023-06-10T04:43:13;13.20;99.90
23744;DHT22;12052;53.478;10.182;2023-06-10T04:45:38;13.30;99.90
23744;DHT22;12052;53.478;10.182;2023-06-10T04:48:05;13.40;99.90
23744;DHT22;12052;53.478;10.182;2023-06-10T04:50:30;13.40;99.90
23744;DHT22;12052;53.478;10.182;2023-06-10T04:52:58;13.50;99.90
23744;DHT22;12052;53.478;10.182;2023-06-10T04:55:24;13.50;99.90
23744;DHT22;12052;53.478;10.182;2023-06-10T04:57:50;13.60;99.90
23744;DHT22;12052;53.478;10.182;2023-06-10T05:00:16;13.70;99.90
23744;DHT22;12052;53.478;10.182;2023-06-10T05:02:42;13.80;99.90
23744;DHT22;12052;53.478;10.182;2023-06-10T05:05:08;13.80;99.90
23744;DHT22;12052;53.478;10.182;2023-06-10T05:07:33;13.90;99.90
23744;DHT22;12052;53.478;10.182;2023-06-10T05:09:59;14.00;99.90
23744;DHT22;12052;53.478;10.182;2023-06-10T05:12:25;14.10;99.90
23744;DHT22;12052;53.478;10.182;2023-06-10T05:14:51;14.10;99.90
23744;DHT22;12052;53.478;10.182;2023-06-10T05:17:17;14.20;99.90
23744;DHT22;12052;53.478;10.182;2023-06-10T05:19:42;14.30;99.90
23744;DHT22;12052;53.478;10.182;2023-06-10T05:22:08;14.40;99.90
23744;DHT22;12052;53.478;10.182;2023-06-10T05:24:34;14.40;99.90
23744;DHT22;12052;53.478;10.182;2023-06-10T05:27:00;14.50;99.90
23744;DHT22;12052;53.478;10.182;2023-06-10T05:29:25;14.60;99.90
23744;DHT22;12052;53.478;10.182;2023-06-10T05:31:51;14.70;99.90
23744;DHT22;12052;53.478;10.182;2023-06-10T05:34:17;14.70;99.90
23744;DHT22;12052;53.478;10.182;2023-06-10T05:36:43;14.90;99.90
23744;DHT22;12052;53.478;10.182;2023-06-10T05:39:09;15.00;99.90
23744;DHT22;12052;53.478;10.182;2023-06-10T05:41:35;15.20;99.90
23744;DHT22;12052;53.478;10.182;2023-06-10T05:44:01;15.30;99.90
23744;DHT22;12052;53.478;10.182;2023-06-10T05:46:27;15.40;99.90
23744;DHT22;12052;53.478;10.182;2023-06-10T05:48:52;15.50;99.90
23744;DHT22;12052;53.478;10.182;2023-06-10T05:51:18;15.60;99.90
23744;DHT22;12052;53.478;10.182;2023-06-10T05:53:43;15.70;99.90
23744;DHT22;12052;53.478;10.182;2023-06-10T05:56:12;15.80;99.90
23744;DHT22;12052;53.478;10.182;2023-06-10T05:58:37;16.00;99.90
23744;DHT22;12052;53.478;10.182;2023-06-10T06:01:03;16.20;99.90
23744;DHT22;12052;53.478;10.182;2023-06-10T06:03:28;16.30;99.90
23744;DHT22;12052;53.478;10.182;2023-06-10T06:05:54;16.60;99.90
23744;DHT22;12052;53.478;10.182;2023-06-10T06:08:20;16.70;99.90
23744;DHT22;12052;53.478;10.182;2023-06-10T06:10:46;16.80;99.90
23744;DHT22;12052;53.478;10.182;2023-06-10T06:13:13;17.00;99.90
23744;DHT22;12052;53.478;10.182;2023-06-10T06:15:38;17.20;99.90
23744;DHT22;12052;53.478;10.182;2023-06-10T06:18:04;17.40;99.90
23744;DHT22;12052;53.478;10.182;2023-06-10T06:20:29;17.40;99.90
23744;DHT22;12052;53.478;10.182;2023-06-10T06:22:55;17.60;99.90
23744;DHT22;12052;53.478;10.182;2023-06-10T06:25:20;17.80;99.90
23744;DHT22;12052;53.478;10.182;2023-06-10T06:27:46;17.90;99.90
23744;DHT22;12052;53.478;10.182;2023-06-10T06:30:12;17.70;99.90
23744;DHT22;12052;53.478;10.182;2023-06-10T06:32:38;17.80;99.90
23744;DHT22;12052;53.478;10.182;2023-06-10T06:35:03;18.00;99.90
23744;DHT22;12052;53.478;10.182;2023-06-10T06:37:31;18.20;99.90
23744;DHT22;12052;53.478;10.182;2023-06-10T06:39:58;18.40;99.90
23744;DHT22;12052;53.478;10.182;2023-06-10T06:42:23;18.40;99.90
23744;DHT22;12052;53.478;10.182;2023-06-10T06:44:49;18.50;99.90
23744;DHT22;12052;53.478;10.182;2023-06-10T06:47:15;18.60;99.90
23744;DHT22;12052;53.478;10.182;2023-06-10T06:49:43;18.60;99.90
23744;DHT22;12052;53.478;10.182;2023-06-10T06:52:08;18.80;99.90
23744;DHT22;12052;53.478;10.182;2023-06-10T06:54:34;18.90;99.90
23744;DHT22;12052;53.478;10.182;2023-06-10T06:57:00;18.90;99.90
23744;DHT22;12052;53.478;10.182;2023-06-10T06:59:25;19.00;99.90
23744;DHT22;12052;53.478;10.182;2023-06-10T07:01:51;19.00;99.90
23744;DHT22;12052;53.478;10.182;2023-06-10T07:04:16;19.00;99.90
23744;DHT22;12052;53.478;10.182;2023-06-10T07:06:42;18.90;99.90
23744;DHT22;12052;53.478;10.182;2023-06-10T07:09:08;18.90;99.90
23744;DHT22;12052;53.478;10.182;2023-06-10T07:11:36;19.00;99.90
23744;DHT22;12052;53.478;10.182;2023-06-10T07:14:02;19.10;99.90
23744;DHT22;12052;53.478;10.182;2023-06-10T07:16:27;19.10;99.90
23744;DHT22;12052;53.478;10.182;2023-06-10T07:18:53;19.10;99.90
23744;DHT22;12052;53.478;10.182;2023-06-10T07:21:19;19.20;99.90
23744;DHT22;12052;53.478;10.182;2023-06-10T07:23:49;19.20;99.90
23744;DHT22;12052;53.478;10.182;2023-06-10T07:26:17;19.40;99.90
23744;DHT22;12052;53.478;10.182;2023-06-10T07:28:43;19.50;99.90
23744;DHT22;12052;53.478;10.182;2023-06-10T07:31:09;19.60;99.90
23744;DHT22;12052;53.478;10.182;2023-06-10T07:33:34;19.80;99.90
23744;DHT22;12052;53.478;10.182;2023-06-10T07:36:00;19.80;99.90
23744;DHT22;12052;53.478;10.182;2023-06-10T07:38:26;19.90;99.90
23744;DHT22;12052;53.478;10.182;2023-06-10T07:40:52;19.90;99.90
23744;DHT22;12052;53.478;10.182;2023-06-10T07:43:18;20.00;99.90
23744;DHT22;12052;53.478;10.182;2023-06-10T07:45:44;20.20;99.90
23744;DHT22;12052;53.478;10.182;2023-06-10T07:48:09;20.20;99.90
23744;DHT22;12052;53.478;10.182;2023-06-10T07:50:35;20.30;99.90
23744;DHT22;12052;53.478;10.182;2023-06-10T07:53:01;20.50;99.90
23744;DHT22;12052;53.478;10.182;2023-06-10T07:55:27;20.50;99.90
23744;DHT22;12052;53.478;10.182;2023-06-10T07:57:53;20.60;99.90
23744;DHT22;12052;53.478;10.182;2023-06-10T08:00:19;20.70;99.90
23744;DHT22;12052;53.478;10.182;2023-06-10T08:02:46;20.60;99.90
23744;DHT22;12052;53.478;10.182;2023-06-10T08:05:11;20.60;99.90
23744;DHT22;12052;53.478;10.182;2023-06-10T08:07:37;20.70;99.90
23744;DHT22;12052;53.478;10.182;2023-06-10T08:10:03;20.80;99.90
23744;DHT22;12052;53.478;10.182;2023-06-10T08:12:29;21.00;99.90
23744;DHT22;12052;53.478;10.182;2023-06-10T08:14:55;20.90;99.90
23744;DHT22;12052;53.478;10.182;2023-06-10T08:17:21;21.00;99.90
23744;DHT22;12052;53.478;10.182;2023-06-10T08:19:47;21.30;99.90
23744;DHT22;12052;53.478;10.182;2023-06-10T08:22:13;21.40;99.90
23744;DHT22;12052;53.478;10.182;2023-06-10T08:24:40;21.50;99.90
23744;DHT22;12052;53.478;10.182;2023-06-10T08:27:05;21.50;99.90
23744;DHT22;12052;53.478;10.182;2023-06-10T08:29:31;21.70;99.90
23744;DHT22;12052;53.478;10.182;2023-06-10T08:31:57;21.80;99.90
23744;DHT22;12052;53.478;10.182;2023-06-10T08:34:23;21.90;99.90
23744;DHT22;12052;53.478;10.182;2023-06-10T08:36:49;21.90;99.90
23744;DHT22;12052;53.478;10.182;2023-06-10T08:39:18;22.10;99.90
23744;DHT22;12052;53.478;10.182;2023-06-10T08:44:53;22.10;99.90
23744;DHT22;12052;53.478;10.182;2023-06-10T08:47:19;22.20;99.90
23744;DHT22;12052;53.478;10.182;2023-06-10T08:49:47;22.30;99.90
23744;DHT22;12052;53.478;10.182;2023-06-10T08:52:15;22.40;99.90
23744;DHT22;12052;53.478;10.182;2023-06-10T08:54:45;22.50;99.90
23744;DHT22;12052;53.478;10.182;2023-06-10T08:57:12;22.40;99.90
23744;DHT22;12052;53.478;10.182;2023-06-10T08:59:38;22.60;99.90
23744;DHT22;12052;53.478;10.182;2023-06-10T09:02:05;22.70;99.90
23744;DHT22;12052;53.478;10.182;2023-06-10T09:04:32;22.70;99.90
23744;DHT22;12052;53.478;10.182;2023-06-10T09:06:59;22.80;99.90
23744;DHT22;12052;53.478;10.182;2023-06-10T09:09:28;22.80;99.90
23744;DHT22;12052;53.478;10.182;2023-06-10T09:11:55;22.60;99.90
23744;DHT22;12052;53.478;10.182;2023-06-10T09:14:21;22.80;99.90
23744;DHT22;12052;53.478;10.182;2023-06-10T09:16:47;23.10;99.90
23744;DHT22;12052;53.478;10.182;2023-06-10T09:19:14;23.20;99.90
23744;DHT22;12052;53.478;10.182;2023-06-10T09:21:41;23.20;99.90
23744;DHT22;12052;53.478;10.182;2023-06-10T09:24:06;23.10;99.90
23744;DHT22;12052;53.478;10.182;2023-06-10T09:26:32;23.20;99.90
23744;DHT22;12052;53.478;10.182;2023-06-10T09:29:06;23.30;99.90
23744;DHT22;12052;53.478;10.182;2023-06-10T09:31:35;23.40;99.90
23744;DHT22;12052;53.478;10.182;2023-06-10T09:34:12;23.30;99.90
23744;DHT22;12052;53.478;10.182;2023-06-10T09:36:39;23.50;99.90
23744;DHT22;12052;53.478;10.182;2023-06-10T09:39:05;23.60;99.90
23744;DHT22;12052;53.478;10.182;2023-06-10T09:41:39;23.90;99.90
23744;DHT22;12052;53.478;10.182;2023-06-10T09:44:12;24.20;99.90
23744;DHT22;12052;53.478;10.182;2023-06-10T09:46:38;24.30;99.90
23744;DHT22;12052;53.478;10.182;2023-06-10T09:49:04;24.40;99.90
23744;DHT22;12052;53.478;10.182;2023-06-10T09:51:30;24.50;99.90
23744;DHT22;12052;53.478;10.182;2023-06-10T09:53:55;24.60;99.90
23744;DHT22;12052;53.478;10.182;2023-06-10T09:56:21;24.80;99.90
23744;DHT22;12052;53.478;10.182;2023-06-10T09:58:53;24.90;99.90
23744;DHT22;12052;53.478;10.182;2023-06-10T10:01:18;24.70;99.90
23744;DHT22;12052;53.478;10.182;2023-06-10T10:03:51;24.90;99.90
23744;DHT22;12052;53.478;10.182;2023-06-10T10:06:19;25.00;99.90
23744;DHT22;12052;53.478;10.182;2023-06-10T10:08:47;25.20;99.90
23744;DHT22;12052;53.478;10.182;2023-06-10T10:11:16;25.30;99.90
23744;DHT22;12052;53.478;10.182;2023-06-10T10:13:42;25.30;99.90
23744;DHT22;12052;53.478;10.182;2023-06-10T10:16:11;25.40;99.90
23744;DHT22;12052;53.478;10.182;2023-06-10T10:18:43;25.40;99.90
23744;DHT22;12052;53.478;10.182;2023-06-10T10:21:16;25.50;99.90
23744;DHT22;12052;53.478;10.182;2023-06-10T10:24:02;25.60;99.90
23744;DHT22;12052;53.478;10.182;2023-06-10T10:26:31;25.70;99.90
23744;DHT22;12052;53.478;10.182;2023-06-10T10:31:56;25.90;99.90
23744;DHT22;12052;53.478;10.182;2023-06-10T10:34:40;26.10;99.90
23744;DHT22;12052;53.478;10.182;2023-06-10T10:37:07;26.00;99.90
23744;DHT22;12052;53.478;10.182;2023-06-10T10:39:34;25.90;99.90
23744;DHT22;12052;53.478;10.182;2023-06-10T10:42:02;26.00;99.90
23744;DHT22;12052;53.478;10.182;2023-06-10T10:44:29;26.20;99.90
23744;DHT22;12052;53.478;10.182;2023-06-10T10:46:55;26.30;99.90
23744;DHT22;12052;53.478;10.182;2023-06-10T10:49:22;26.30;99.90
23744;DHT22;12052;53.478;10.182;2023-06-10T10:52:01;26.20;99.90
23744;DHT22;12052;53.478;10.182;2023-06-10T10:54:30;26.00;99.90
23744;DHT22;12052;53.478;10.182;2023-06-10T10:57:10;26.10;99.90
23744;DHT22;12052;53.478;10.182;2023-06-10T11:04:58;26.50;99.90
23744;DHT22;12052;53.478;10.182;2023-06-10T11:07:30;26.80;99.90
23744;DHT22;12052;53.478;10.182;2023-06-10T11:12:41;26.90;99.90
23744;DHT22;12052;53.478;10.182;2023-06-10T11:15:08;27.10;99.90
23744;DHT22;12052;53.478;10.182;2023-06-10T11:17:33;26.80;99.90
23744;DHT22;12052;53.478;10.182;2023-06-10T11:19:59;26.90;99.90
23744;DHT22;12052;53.478;10.182;2023-06-10T11:22:25;27.10;99.90
23744;DHT22;12052;53.478;10.182;2023-06-10T11:24:51;27.00;99.90
23744;DHT22;12052;53.478;10.182;2023-06-10T11:27:18;27.10;99.90
23744;DHT22;12052;53.478;10.182;2023-06-10T11:29:58;27.20;99.90
23744;DHT22;12052;53.478;10.182;2023-06-10T11:32:34;27.20;99.90
23744;DHT22;12052;53.478;10.182;2023-06-10T11:35:03;27.30;99.90
23744;DHT22;12052;53.478;10.182;2023-06-10T11:37:29;27.50;99.90
23744;DHT22;12052;53.478;10.182;2023-06-10T11:39:55;27.70;99.90
23744;DHT22;12052;53.478;10.182;2023-06-10T11:42:22;27.70;99.90
23744;DHT22;12052;53.478;10.182;2023-06-10T11:44:52;27.60;99.90
23744;DHT22;12052;53.478;10.182;2023-06-10T11:47:19;27.50;99.90
23744;DHT22;12052;53.478;10.182;2023-06-10T11:49:46;27.40;99.90
23744;DHT22;12052;53.478;10.182;2023-06-10T11:52:12;27.30;99.90
23744;DHT22;12052;53.478;10.182;2023-06-10T11:54:38;27.40;99.90
23744;DHT22;12052;53.478;10.182;2023-06-10T11:57:04;27.60;99.90
23744;DHT22;12052;53.478;10.182;2023-06-10T11:59:30;27.70;99.90
23744;DHT22;12052;53.478;10.182;2023-06-10T12:01:56;27.80;99.90
23744;DHT22;12052;53.478;10.182;2023-06-10T12:04:22;27.70;99.90
23744;DHT22;12052;53.478;10.182;2023-06-10T12:06:52;27.90;99.90
23744;DHT22;12052;53.478;10.182;2023-06-10T12:11:57;27.70;99.90
23744;DHT22;12052;53.478;10.182;2023-06-10T12:14:57;27.80;99.90
23744;DHT22;12052;53.478;10.182;2023-06-10T12:20:05;28.20;99.90
23744;DHT22;12052;53.478;10.182;2023-06-10T12:22:43;28.00;99.90
23744;DHT22;12052;53.478;10.182;2023-06-10T12:25:11;27.90;99.90
23744;DHT22;12052;53.478;10.182;2023-06-10T12:27:38;28.00;99.90
23744;DHT22;12052;53.478;10.182;2023-06-10T12:30:05;28.00;99.90
23744;DHT22;12052;53.478;10.182;2023-06-10T12:32:44;28.20;99.90
23744;DHT22;12052;53.478;10.182;2023-06-10T12:35:12;28.10;99.90
23744;DHT22;12052;53.478;10.182;2023-06-10T12:37:39;28.20;99.90
23744;DHT22;12052;53.478;10.182;2023-06-10T12:40:05;28.30;99.90
23744;DHT22;12052;53.478;10.182;2023-06-10T12:42:32;28.40;99.90
23744;DHT22;12052;53.478;10.182;2023-06-10T12:45:00;28.40;99.90
23744;DHT22;12052;53.478;10.182;2023-06-10T12:47:37;28.50;99.90
23744;DHT22;12052;53.478;10.182;2023-06-10T12:50:07;28.40;99.90
23744;DHT22;12052;53.478;10.182;2023-06-10T12:52:33;28.50;99.90
23744;DHT22;12052;53.478;10.182;2023-06-10T12:54:59;28.60;99.90
23744;DHT22;12052;53.478;10.182;2023-06-10T12:57:25;28.80;99.90
23744;DHT22;12052;53.478;10.182;2023-06-10T12:59:51;28.90;99.90
23744;DHT22;12052;53.478;10.182;2023-06-10T13:02:22;28.80;99.90
23744;DHT22;12052;53.478;10.182;2023-06-10T13:04:50;28.80;99.90
23744;DHT22;12052;53.478;10.182;2023-06-10T13:07:16;28.90;99.90
23744;DHT22;12052;53.478;10.182;2023-06-10T13:09:42;28.90;99.90
23744;DHT22;12052;53.478;10.182;2023-06-10T13:12:08;28.90;99.90
23744;DHT22;12052;53.478;10.182;2023-06-10T13:14:34;28.90;99.90
23744;DHT22;12052;53.478;10.182;2023-06-10T13:17:00;28.90;99.90
23744;DHT22;12052;53.478;10.182;2023-06-10T13:19:25;28.90;99.90
23744;DHT22;12052;53.478;10.182;2023-06-10T13:21:52;28.90;99.90
23744;DHT22;12052;53.478;10.182;2023-06-10T13:24:17;29.00;99.90
23744;DHT22;12052;53.478;10.182;2023-06-10T13:26:43;29.10;99.90
23744;DHT22;12052;53.478;10.182;2023-06-10T13:29:09;29.10;99.90
23744;DHT22;12052;53.478;10.182;2023-06-10T13:31:39;29.20;99.90
23744;DHT22;12052;53.478;10.182;2023-06-10T13:34:05;29.40;99.90
23744;DHT22;12052;53.478;10.182;2023-06-10T13:36:31;29.20;99.90
23744;DHT22;12052;53.478;10.182;2023-06-10T13:38:57;29.30;99.90
23744;DHT22;12052;53.478;10.182;2023-06-10T13:41:23;29.30;99.90
23744;DHT22;12052;53.478;10.182;2023-06-10T13:43:48;29.30;99.90
23744;DHT22;12052;53.478;10.182;2023-06-10T13:46:14;29.20;99.90
23744;DHT22;12052;53.478;10.182;2023-06-10T13:48:40;29.30;99.90
23744;DHT22;12052;53.478;10.182;2023-06-10T13:51:07;29.20;99.90
23744;DHT22;12052;53.478;10.182;2023-06-10T13:53:37;29.20;99.90
23744;DHT22;12052;53.478;10.182;2023-06-10T13:56:03;29.20;99.90
23744;DHT22;12052;53.478;10.182;2023-06-10T13:58:31;29.20;99.90
23744;DHT22;12052;53.478;10.182;2023-06-10T14:00:56;29.10;99.90
23744;DHT22;12052;53.478;10.182;2023-06-10T14:03:25;29.00;99.90
23744;DHT22;12052;53.478;10.182;2023-06-10T14:05:51;29.00;99.90
23744;DHT22;12052;53.478;10.182;2023-06-10T14:08:17;28.90;99.90
23744;DHT22;12052;53.478;10.182;2023-06-10T14:10:43;28.70;99.90
23744;DHT22;12052;53.478;10.182;2023-06-10T14:13:24;28.50;99.90
23744;DHT22;12052;53.478;10.182;2023-06-10T14:15:56;28.50;99.90
23744;DHT22;12052;53.478;10.182;2023-06-10T14:18:50;28.30;99.90
23744;DHT22;12052;53.478;10.182;2023-06-10T14:22:01;28.10;99.90
23744;DHT22;12052;53.478;10.182;2023-06-10T14:24:37;28.30;99.90
23744;DHT22;12052;53.478;10.182;2023-06-10T14:27:40;28.30;99.90
23744;DHT22;12052;53.478;10.182;2023-06-10T14:30:09;28.30;99.90
23744;DHT22;12052;53.478;10.182;2023-06-10T14:32:39;28.40;99.90
23744;DHT22;12052;53.478;10.182;2023-06-10T14:35:05;28.40;99.90
23744;DHT22;12052;53.478;10.182;2023-06-10T14:37:31;28.40;99.90
23744;DHT22;12052;53.478;10.182;2023-06-10T14:39:56;28.30;99.90
23744;DHT22;12052;53.478;10.182;2023-06-10T14:42:22;28.20;99.90
23744;DHT22;12052;53.478;10.182;2023-06-10T14:44:48;28.10;99.90
23744;DHT22;12052;53.478;10.182;2023-06-10T14:47:14;28.00;99.90
23744;DHT22;12052;53.478;10.182;2023-06-10T14:49:42;27.80;99.90
23744;DHT22;12052;53.478;10.182;2023-06-10T14:52:10;27.80;99.90
23744;DHT22;12052;53.478;10.182;2023-06-10T14:54:36;27.70;99.90
23744;DHT22;12052;53.478;10.182;2023-06-10T14:57:04;27.60;99.90
23744;DHT22;12052;53.478;10.182;2023-06-10T14:59:31;27.50;99.90
23744;DHT22;12052;53.478;10.182;2023-06-10T15:01:57;27.50;99.90
23744;DHT22;12052;53.478;10.182;2023-06-10T15:04:28;27.50;99.90
23744;DHT22;12052;53.478;10.182;2023-06-10T15:07:34;27.50;99.90
23744;DHT22;12052;53.478;10.182;2023-06-10T15:10:01;27.60;99.90
23744;DHT22;12052;53.478;10.182;2023-06-10T15:13:10;27.60;99.90
23744;DHT22;12052;53.478;10.182;2023-06-10T15:18:55;27.50;99.90
23744;DHT22;12052;53.478;10.182;2023-06-10T15:21:20;27.50;99.90
23744;DHT22;12052;53.478;10.182;2023-06-10T15:23:46;27.50;99.90
23744;DHT22;12052;53.478;10.182;2023-06-10T15:26:12;27.50;99.90
23744;DHT22;12052;53.478;10.182;2023-06-10T15:28:38;27.30;99.90
23744;DHT22;12052;53.478;10.182;2023-06-10T15:31:03;27.30;99.90
23744;DHT22;12052;53.478;10.182;2023-06-10T15:33:30;27.30;99.90
23744;DHT22;12052;53.478;10.182;2023-06-10T15:35:56;27.30;99.90
23744;DHT22;12052;53.478;10.182;2023-06-10T15:38:22;27.20;99.90
23744;DHT22;12052;53.478;10.182;2023-06-10T15:40:47;27.20;99.90
23744;DHT22;12052;53.478;10.182;2023-06-10T15:43:13;27.10;99.90